createdAt,value
2023-01-31T00:01:43.958Z,20.73
2023-01-31T00:04:15.442Z,20.00
2023-01-31T00:06:46.910Z,20.73
2023-01-31T00:09:18.836Z,23.75
2023-01-31T00:11:50.278Z,26.02
2023-01-31T00:14:21.692Z,20.67
2023-01-31T00:16:53.151Z,19.95
2023-01-31T00:19:24.567Z,19.75
2023-01-31T00:21:55.995Z,20.17
2023-01-31T00:24:27.445Z,20.45
2023-01-31T00:26:58.899Z,24.88
2023-01-31T00:29:30.359Z,28.60
2023-01-31T00:32:01.857Z,24.42
2023-01-31T00:34:33.425Z,24.83
2023-01-31T00:37:04.830Z,28.25
2023-01-31T00:39:36.376Z,27.38
2023-01-31T00:42:07.842Z,30.55
2023-01-31T00:44:39.246Z,28.15
2023-01-31T00:47:10.661Z,32.25
2023-01-31T00:49:42.054Z,28.92
2023-01-31T00:52:13.491Z,30.83
2023-01-31T00:54:44.938Z,33.13
2023-01-31T00:57:16.535Z,29.95
2023-01-31T00:59:47.979Z,32.03
2023-01-31T01:02:19.448Z,31.70
2023-01-31T01:04:50.937Z,30.45
2023-01-31T01:07:22.390Z,37.45
2023-01-31T01:09:53.831Z,35.53
2023-01-31T01:12:25.298Z,32.03
2023-01-31T01:14:56.699Z,32.38
2023-01-31T01:17:28.117Z,29.02
2023-01-31T01:19:59.594Z,25.90
2023-01-31T01:22:32.161Z,37.00
2023-01-31T01:25:04.384Z,31.77
2023-01-31T01:27:35.994Z,30.90
2023-01-31T01:30:08.292Z,30.33
2023-01-31T01:32:39.727Z,29.20
2023-01-31T01:35:11.229Z,34.13
2023-01-31T01:37:42.700Z,37.42
2023-01-31T01:40:14.168Z,34.95
2023-01-31T01:42:45.631Z,30.52
2023-01-31T01:45:19.310Z,30.15
2023-01-31T01:47:59.606Z,32.13
2023-01-31T01:50:42.566Z,37.25
2023-01-31T01:53:18.870Z,32.85
2023-01-31T01:55:52.813Z,31.13
2023-01-31T01:58:31.419Z,33.27
2023-01-31T02:01:05.641Z,35.13
2023-01-31T02:03:38.538Z,35.90
2023-01-31T02:06:10.210Z,35.92
2023-01-31T02:08:43.120Z,29.80
2023-01-31T02:11:24.977Z,34.17
2023-01-31T02:14:02.039Z,31.90
2023-01-31T02:16:33.555Z,33.15
2023-01-31T02:19:16.880Z,29.38
2023-01-31T02:21:54.121Z,33.53
2023-01-31T02:25:03.340Z,26.70
2023-01-31T02:28:14.455Z,32.78
2023-01-31T02:30:45.890Z,32.13
2023-01-31T02:33:22.876Z,32.08
2023-01-31T02:36:12.490Z,30.70
2023-01-31T02:38:49.973Z,31.33
2023-01-31T02:41:30.922Z,35.95
2023-01-31T02:44:32.101Z,34.65
2023-01-31T02:47:03.509Z,31.38
2023-01-31T02:49:46.586Z,35.80
2023-01-31T02:52:55.268Z,34.45
2023-01-31T02:55:35.097Z,40.00
2023-01-31T02:58:09.604Z,35.90
2023-01-31T03:00:45.357Z,35.70
2023-01-31T03:03:27.674Z,32.47
2023-01-31T03:06:17.582Z,35.28
2023-01-31T03:08:58.473Z,30.83
2023-01-31T03:11:46.195Z,33.37
2023-01-31T03:14:47.264Z,34.00
2023-01-31T03:17:26.261Z,33.85
2023-01-31T03:20:24.476Z,32.40
2023-01-31T03:23:03.778Z,26.65
2023-01-31T03:25:37.434Z,30.83
2023-01-31T03:28:14.449Z,31.38
2023-01-31T03:30:57.893Z,35.47
2023-01-31T03:33:34.936Z,32.60
2023-01-31T03:36:18.254Z,27.23
2023-01-31T03:38:58.897Z,30.20
2023-01-31T03:41:54.302Z,30.17
2023-01-31T03:44:31.583Z,33.17
2023-01-31T03:47:14.574Z,32.78
2023-01-31T03:49:48.717Z,30.00
2023-01-31T03:52:26.656Z,29.85
2023-01-31T03:55:15.127Z,33.92
2023-01-31T03:57:51.322Z,29.47
2023-01-31T04:00:24.720Z,28.73
2023-01-31T04:03:04.911Z,31.65
2023-01-31T04:05:37.086Z,34.10
2023-01-31T04:08:08.658Z,31.70
2023-01-31T04:10:41.103Z,25.85
2023-01-31T04:13:12.646Z,35.63
2023-01-31T04:15:44.160Z,33.53
2023-01-31T04:18:15.605Z,26.40
2023-01-31T04:20:47.054Z,35.80
2023-01-31T04:23:18.914Z,28.87
2023-01-31T04:25:50.447Z,26.10
2023-01-31T04:28:22.671Z,31.05
2023-01-31T04:30:55.381Z,24.98
2023-01-31T04:33:26.824Z,26.17
2023-01-31T04:35:58.370Z,26.30
2023-01-31T04:38:29.826Z,29.95
2023-01-31T04:41:01.243Z,23.07
2023-01-31T04:43:33.063Z,27.20
2023-01-31T04:46:04.949Z,23.23
2023-01-31T04:48:36.729Z,28.58
2023-01-31T04:51:08.610Z,24.03
2023-01-31T04:53:40.089Z,24.48
2023-01-31T04:56:11.533Z,25.85
2023-01-31T04:58:42.973Z,24.52
2023-01-31T05:01:14.635Z,27.95
2023-01-31T05:03:46.186Z,21.70
2023-01-31T05:06:17.927Z,19.08
2023-01-31T05:08:49.354Z,22.55
2023-01-31T05:11:21.068Z,22.05
2023-01-31T05:13:52.486Z,25.85
2023-01-31T05:16:23.971Z,20.92
2023-01-31T05:18:55.507Z,27.05
2023-01-31T05:21:27.016Z,26.95
2023-01-31T05:23:58.508Z,27.20
2023-01-31T05:26:30.047Z,25.48
2023-01-31T05:29:01.492Z,23.63
2023-01-31T05:31:33.072Z,26.53
2023-01-31T05:34:04.554Z,23.52
2023-01-31T05:36:36.147Z,24.08
2023-01-31T05:39:07.746Z,25.08
2023-01-31T05:41:39.178Z,24.83
2023-01-31T05:44:10.636Z,22.20
2023-01-31T05:46:42.516Z,28.35
2023-01-31T05:49:14.492Z,22.65
2023-01-31T05:51:45.990Z,27.00
2023-01-31T05:54:17.430Z,28.33
2023-01-31T05:56:48.988Z,26.80
2023-01-31T05:59:20.413Z,22.33
2023-01-31T06:01:51.983Z,23.20
2023-01-31T06:04:23.408Z,29.35
2023-01-31T06:06:54.887Z,25.30
2023-01-31T06:09:26.459Z,29.15
2023-01-31T06:11:58.522Z,25.17
2023-01-31T06:14:30.770Z,29.42
2023-01-31T06:17:02.296Z,22.48
2023-01-31T06:19:33.800Z,28.17
2023-01-31T06:22:05.549Z,28.90
2023-01-31T06:24:36.981Z,27.38
2023-01-31T06:27:08.374Z,26.75
2023-01-31T06:29:39.796Z,21.35
2023-01-31T06:32:11.215Z,21.40
2023-01-31T06:34:42.661Z,26.98
2023-01-31T06:37:14.108Z,24.17
2023-01-31T06:39:46.915Z,25.02
2023-01-31T06:42:18.332Z,26.88
2023-01-31T06:44:49.729Z,25.02
2023-01-31T06:47:21.158Z,23.02
2023-01-31T06:49:52.574Z,22.77
2023-01-31T06:52:24.187Z,22.88
2023-01-31T06:54:55.589Z,21.85
2023-01-31T06:57:27.032Z,20.95
2023-01-31T06:59:58.435Z,23.25
2023-01-31T07:02:30.366Z,23.83
2023-01-31T07:05:01.882Z,20.50
2023-01-31T07:07:33.428Z,22.38
2023-01-31T07:10:05.363Z,21.70
2023-01-31T07:12:36.936Z,20.97
2023-01-31T07:15:10.036Z,19.63
2023-01-31T07:17:41.457Z,19.98
2023-01-31T07:20:13.095Z,21.20
2023-01-31T07:22:44.520Z,24.30
2023-01-31T07:25:15.955Z,25.05
2023-01-31T07:27:47.366Z,20.70
2023-01-31T07:30:19.354Z,20.37
2023-01-31T07:32:51.261Z,21.33
2023-01-31T07:35:22.972Z,23.80
2023-01-31T07:37:54.836Z,23.85
2023-01-31T07:40:26.340Z,21.60
2023-01-31T07:42:59.388Z,16.30
2023-01-31T07:45:30.996Z,20.25
2023-01-31T07:48:02.538Z,24.70
2023-01-31T07:50:34.026Z,21.90
2023-01-31T07:53:05.446Z,26.33
2023-01-31T07:55:36.833Z,19.88
2023-01-31T07:58:08.223Z,20.92
2023-01-31T08:00:39.772Z,21.65
2023-01-31T08:03:24.612Z,26.88
2023-01-31T08:05:56.070Z,25.98
2023-01-31T08:08:27.509Z,20.25
2023-01-31T08:10:59.043Z,22.08
2023-01-31T08:13:31.768Z,24.20
2023-01-31T08:16:04.742Z,23.45
2023-01-31T08:18:37.441Z,22.30
2023-01-31T08:21:12.420Z,19.42
2023-01-31T08:23:44.962Z,25.20
2023-01-31T08:26:19.589Z,23.93
2023-01-31T08:28:52.058Z,23.88
2023-01-31T08:31:25.689Z,26.40
2023-01-31T08:33:57.299Z,25.00
2023-01-31T08:36:31.529Z,22.60
2023-01-31T08:39:04.183Z,25.33
2023-01-31T08:41:37.054Z,26.20
2023-01-31T08:44:08.486Z,22.67
2023-01-31T08:46:39.942Z,22.70
2023-01-31T08:49:11.379Z,25.75
2023-01-31T08:51:42.987Z,28.27
2023-01-31T08:54:14.491Z,23.80
2023-01-31T08:56:45.924Z,27.50
2023-01-31T08:59:17.385Z,29.42
2023-01-31T09:01:48.824Z,24.02
2023-01-31T09:04:20.343Z,23.70
2023-01-31T09:06:51.778Z,26.50
2023-01-31T09:09:23.202Z,30.20
2023-01-31T09:11:54.615Z,22.15
2023-01-31T09:14:26.011Z,24.42
2023-01-31T09:16:57.443Z,24.10
2023-01-31T09:19:28.972Z,23.67
2023-01-31T09:22:00.447Z,26.20
2023-01-31T09:24:32.227Z,26.95
2023-01-31T09:27:03.796Z,28.17
2023-01-31T09:29:35.195Z,21.73
2023-01-31T09:32:07.183Z,25.80
2023-01-31T09:34:38.590Z,22.90
2023-01-31T09:37:10.039Z,28.55
2023-01-31T09:39:41.566Z,22.70
2023-01-31T09:42:28.371Z,27.77
2023-01-31T09:45:07.732Z,26.02
2023-01-31T09:47:43.364Z,30.30
2023-01-31T09:50:27.177Z,28.35
2023-01-31T09:52:58.844Z,25.33
2023-01-31T09:55:47.645Z,26.55
2023-01-31T09:58:26.773Z,26.15
2023-01-31T10:01:36.428Z,27.83
2023-01-31T10:04:29.291Z,23.52
2023-01-31T10:07:12.779Z,23.45
2023-01-31T10:09:55.725Z,29.13
2023-01-31T10:12:40.872Z,23.03
2023-01-31T10:15:36.827Z,30.23
2023-01-31T10:18:13.971Z,22.63
2023-01-31T10:21:00.488Z,32.60
2023-01-31T10:24:03.893Z,25.05
2023-01-31T10:26:38.973Z,27.27
2023-01-31T10:29:30.838Z,29.65
2023-01-31T10:32:24.224Z,28.17
2023-01-31T10:35:12.002Z,20.63
2023-01-31T10:37:47.835Z,25.17
2023-01-31T10:40:25.838Z,26.27
2023-01-31T10:43:16.422Z,21.48
2023-01-31T10:45:47.898Z,23.45
2023-01-31T10:48:21.332Z,24.40
2023-01-31T10:51:32.349Z,22.77
2023-01-31T10:54:35.642Z,26.13
2023-01-31T10:57:07.184Z,28.60
2023-01-31T10:59:44.261Z,23.80
2023-01-31T11:02:25.317Z,29.23
2023-01-31T11:04:58.907Z,25.90
2023-01-31T11:07:31.594Z,30.85
2023-01-31T11:10:24.705Z,25.38
2023-01-31T11:13:02.206Z,22.90
2023-01-31T11:15:40.095Z,25.97
2023-01-31T11:18:29.068Z,25.30
2023-01-31T11:21:02.747Z,35.17
2023-01-31T11:23:36.184Z,30.25
2023-01-31T11:26:07.870Z,31.00
2023-01-31T11:28:41.038Z,21.48
2023-01-31T11:31:33.947Z,25.60
2023-01-31T11:34:18.015Z,37.05
2023-01-31T11:36:49.568Z,25.42
2023-01-31T11:39:33.487Z,28.60
2023-01-31T11:42:07.292Z,28.05
2023-01-31T11:44:56.482Z,27.83
2023-01-31T11:47:42.382Z,25.75
2023-01-31T11:50:21.649Z,23.43
2023-01-31T11:53:13.987Z,31.23
2023-01-31T11:55:47.706Z,27.70
2023-01-31T11:58:33.344Z,27.05
2023-01-31T12:01:14.373Z,25.07
2023-01-31T12:04:03.015Z,28.10
2023-01-31T12:06:36.944Z,29.67
2023-01-31T12:09:23.933Z,25.27
2023-01-31T12:12:01.964Z,28.00
2023-01-31T12:14:40.359Z,23.00
2023-01-31T12:17:17.573Z,30.38
2023-01-31T12:20:27.153Z,26.00
2023-01-31T12:23:07.068Z,27.75
2023-01-31T12:25:55.569Z,26.48
2023-01-31T12:28:45.911Z,33.90
2023-01-31T12:31:39.057Z,30.92
2023-01-31T12:34:28.737Z,28.95
2023-01-31T12:37:31.465Z,27.73
2023-01-31T12:40:36.894Z,29.20
2023-01-31T12:43:31.400Z,27.23
2023-01-31T12:46:25.334Z,24.58
2023-01-31T12:48:56.753Z,25.92
2023-01-31T12:51:42.949Z,23.02
2023-01-31T12:54:34.613Z,22.17
2023-01-31T12:57:38.564Z,23.80
2023-01-31T13:00:12.992Z,31.45
2023-01-31T13:03:09.173Z,25.23
2023-01-31T13:05:53.988Z,29.08
2023-01-31T13:08:34.963Z,26.48
2023-01-31T13:11:11.283Z,27.83
2023-01-31T13:13:54.661Z,28.27
2023-01-31T13:16:30.244Z,23.27
2023-01-31T13:19:06.291Z,23.10
2023-01-31T13:21:44.324Z,26.27
2023-01-31T13:24:20.670Z,22.80
2023-01-31T13:26:58.131Z,24.42
2023-01-31T13:29:38.912Z,20.30
2023-01-31T13:32:25.715Z,27.58
2023-01-31T13:35:05.173Z,23.10
2023-01-31T13:37:41.048Z,24.23
2023-01-31T13:40:19.665Z,27.58
2023-01-31T13:42:51.367Z,34.35
2023-01-31T13:45:29.892Z,28.40
2023-01-31T13:48:07.029Z,23.43
2023-01-31T13:50:44.802Z,28.25
2023-01-31T13:53:31.081Z,20.73
2023-01-31T13:56:04.397Z,26.20
2023-01-31T13:58:36.833Z,24.20
2023-01-31T14:01:13.625Z,24.70
2023-01-31T14:04:17.725Z,22.25
2023-01-31T14:07:01.126Z,25.70
2023-01-31T14:09:43.683Z,25.83
2023-01-31T14:12:15.048Z,24.40
2023-01-31T14:14:48.335Z,26.73
2023-01-31T14:17:28.994Z,23.60
2023-01-31T14:20:07.849Z,23.70
2023-01-31T14:22:39.412Z,19.10
2023-01-31T14:25:10.823Z,22.52
2023-01-31T14:27:51.275Z,18.37
2023-01-31T14:30:37.108Z,22.73
2023-01-31T14:33:18.452Z,25.70
2023-01-31T14:36:22.515Z,20.00
2023-01-31T14:39:12.437Z,17.13
2023-01-31T14:42:03.345Z,21.05
2023-01-31T14:44:47.638Z,22.83
2023-01-31T14:47:41.881Z,21.45
2023-01-31T14:50:34.775Z,25.83
2023-01-31T14:53:35.989Z,20.58
2023-01-31T14:56:51.211Z,27.92
2023-01-31T14:59:29.001Z,24.20
2023-01-31T15:02:18.254Z,22.05
2023-01-31T15:05:01.090Z,24.48
2023-01-31T15:07:33.243Z,23.33
2023-01-31T15:10:04.942Z,18.98
2023-01-31T15:12:57.922Z,23.67
2023-01-31T15:15:39.703Z,20.97
2023-01-31T15:18:19.887Z,22.05
2023-01-31T15:20:57.238Z,19.13
2023-01-31T15:23:32.412Z,24.10
2023-01-31T15:26:04.136Z,21.20
2023-01-31T15:28:41.883Z,18.13
2023-01-31T15:31:36.548Z,18.92
2023-01-31T15:34:16.843Z,19.75
2023-01-31T15:37:13.308Z,23.25
2023-01-31T15:39:54.313Z,17.58
2023-01-31T15:42:28.342Z,20.52
2023-01-31T15:45:24.521Z,18.77
2023-01-31T15:48:10.966Z,17.00
2023-01-31T15:50:57.056Z,19.73
2023-01-31T15:53:31.401Z,16.33
2023-01-31T15:56:08.421Z,22.83
2023-01-31T15:58:39.980Z,20.10
2023-01-31T16:01:15.418Z,18.33
2023-01-31T16:03:55.680Z,22.42
2023-01-31T16:06:34.558Z,19.92
2023-01-31T16:09:07.823Z,22.73
2023-01-31T16:11:39.353Z,22.95
2023-01-31T16:14:11.352Z,23.73
2023-01-31T16:16:45.840Z,24.27
2023-01-31T16:19:24.470Z,22.52
2023-01-31T16:21:58.129Z,23.02
2023-01-31T16:24:30.061Z,23.08
2023-01-31T16:27:08.838Z,23.38
2023-01-31T16:29:50.592Z,22.80
2023-01-31T16:32:37.728Z,24.88
2023-01-31T16:35:25.096Z,20.05
2023-01-31T16:38:03.042Z,21.42
2023-01-31T16:40:37.181Z,20.55
2023-01-31T16:43:29.679Z,23.30
2023-01-31T16:46:04.928Z,22.00
2023-01-31T16:48:38.204Z,22.65
2023-01-31T16:51:24.645Z,19.80
2023-01-31T16:54:21.044Z,29.43
2023-01-31T16:57:01.701Z,23.40
2023-01-31T16:59:33.205Z,20.27
2023-01-31T17:02:13.741Z,19.58
2023-01-31T17:04:47.179Z,22.67
2023-01-31T17:07:28.581Z,21.42
2023-01-31T17:10:04.015Z,25.40
2023-01-31T17:12:38.548Z,22.92
2023-01-31T17:15:15.835Z,24.10
2023-01-31T17:17:47.720Z,24.07
2023-01-31T17:20:21.243Z,28.75
2023-01-31T17:23:02.433Z,21.63
2023-01-31T17:25:35.515Z,21.30
2023-01-31T17:28:07.037Z,22.20
2023-01-31T17:30:40.950Z,21.30
2023-01-31T17:33:13.564Z,19.20
2023-01-31T17:35:46.342Z,25.40
2023-01-31T17:38:17.777Z,18.40
2023-01-31T17:40:49.425Z,25.45
2023-01-31T17:43:22.299Z,24.88
2023-01-31T17:45:53.760Z,23.98
2023-01-31T17:48:26.910Z,20.55
2023-01-31T17:50:58.692Z,21.20
2023-01-31T17:53:34.490Z,25.70
2023-01-31T17:56:08.879Z,19.42
2023-01-31T17:58:40.297Z,23.40
2023-01-31T18:01:12.427Z,28.33
2023-01-31T18:03:44.001Z,27.88
2023-01-31T18:06:15.463Z,22.30
2023-01-31T18:08:46.911Z,21.38
2023-01-31T18:11:18.421Z,24.98
2023-01-31T18:13:49.863Z,21.07
2023-01-31T18:16:21.372Z,25.17
2023-01-31T18:18:54.675Z,20.67
2023-01-31T18:21:26.143Z,20.33
2023-01-31T18:23:58.092Z,24.63
2023-01-31T18:26:29.975Z,28.88
2023-01-31T18:29:01.593Z,21.77
2023-01-31T18:31:33.173Z,23.38
2023-01-31T18:34:04.670Z,23.92
2023-01-31T18:36:36.123Z,24.05
2023-01-31T18:39:07.585Z,18.45
2023-01-31T18:41:39.059Z,24.27
2023-01-31T18:44:10.652Z,26.20
2023-01-31T18:46:42.269Z,24.30
2023-01-31T18:49:13.752Z,28.02
2023-01-31T18:51:45.210Z,24.35
2023-01-31T18:54:16.737Z,24.60
2023-01-31T18:56:48.219Z,22.63
2023-01-31T18:59:19.709Z,23.55
2023-01-31T19:01:53.997Z,21.63
2023-01-31T19:04:25.600Z,26.35
2023-01-31T19:06:57.106Z,24.52
2023-01-31T19:09:28.533Z,26.50
2023-01-31T19:11:59.956Z,25.13
2023-01-31T19:14:31.427Z,24.67
2023-01-31T19:17:02.908Z,27.02
2023-01-31T19:19:34.371Z,24.58
2023-01-31T19:22:05.781Z,20.75
2023-01-31T19:24:37.219Z,23.60
2023-01-31T19:27:08.691Z,23.92
2023-01-31T19:29:40.111Z,25.23
2023-01-31T19:32:11.616Z,22.13
2023-01-31T19:34:43.031Z,19.25
2023-01-31T19:37:14.466Z,22.15
2023-01-31T19:39:45.930Z,19.33
2023-01-31T19:42:17.405Z,23.17
2023-01-31T19:44:48.847Z,22.73
2023-01-31T19:47:20.294Z,24.80
2023-01-31T19:49:51.740Z,22.50
2023-01-31T19:52:23.275Z,23.10
2023-01-31T19:54:54.696Z,26.50
2023-01-31T19:57:26.186Z,22.30
2023-01-31T19:59:57.591Z,24.88
2023-01-31T20:02:29.145Z,18.65
2023-01-31T20:05:00.638Z,24.10
2023-01-31T20:07:32.084Z,25.23
2023-01-31T20:10:03.715Z,21.58
2023-01-31T20:12:35.162Z,25.05
2023-01-31T20:15:07.621Z,24.08
2023-01-31T20:17:39.075Z,24.88
2023-01-31T20:20:11.227Z,26.48
2023-01-31T20:22:42.623Z,23.70
2023-01-31T20:25:14.462Z,24.38
2023-01-31T20:27:45.882Z,26.23
2023-01-31T20:30:17.482Z,26.33
2023-01-31T20:32:52.019Z,26.23
2023-01-31T20:35:23.444Z,27.30
2023-01-31T20:37:54.847Z,22.00
2023-01-31T20:40:26.274Z,26.17
2023-01-31T20:42:57.834Z,24.40
2023-01-31T20:45:29.417Z,22.85
2023-01-31T20:48:01.055Z,23.70
2023-01-31T20:50:32.481Z,20.45
2023-01-31T20:53:04.343Z,24.08
2023-01-31T20:55:35.750Z,24.45
2023-01-31T20:58:07.155Z,24.70
2023-01-31T21:00:38.614Z,23.00
2023-01-31T21:03:10.026Z,22.20
2023-01-31T21:05:41.463Z,26.70
2023-01-31T21:08:13.045Z,23.70
2023-01-31T21:10:52.138Z,26.88
2023-01-31T21:13:24.923Z,22.00
2023-01-31T21:15:58.757Z,29.02
2023-01-31T21:18:34.615Z,25.48
2023-01-31T21:21:08.697Z,27.83
2023-01-31T21:23:41.172Z,27.17
2023-01-31T21:26:12.643Z,25.70
2023-01-31T21:28:44.144Z,24.48
2023-01-31T21:31:17.711Z,24.02
2023-01-31T21:33:51.568Z,22.50
2023-01-31T21:36:25.234Z,27.23
2023-01-31T21:38:56.887Z,25.98
2023-01-31T21:41:28.513Z,27.70
2023-01-31T21:44:00.519Z,29.60
2023-01-31T21:46:32.043Z,27.73
2023-01-31T21:49:04.133Z,24.50
2023-01-31T21:51:35.578Z,29.08
2023-01-31T21:54:07.228Z,26.63
2023-01-31T21:56:38.683Z,26.55
2023-01-31T21:59:10.292Z,23.97
2023-01-31T22:01:41.858Z,22.98
2023-01-31T22:04:13.282Z,24.55
2023-01-31T22:06:44.752Z,24.60
2023-01-31T22:09:16.800Z,29.27
2023-01-31T22:11:48.236Z,25.65
2023-01-31T22:14:20.248Z,24.98
2023-01-31T22:16:51.641Z,20.05
2023-01-31T22:19:23.104Z,22.53
2023-01-31T22:21:54.578Z,21.48
2023-01-31T22:24:26.101Z,26.60
2023-01-31T22:26:57.573Z,20.27
2023-01-31T22:29:29.002Z,24.20
2023-01-31T22:32:00.431Z,25.73
2023-01-31T22:34:31.844Z,28.52
2023-01-31T22:37:03.264Z,29.42
2023-01-31T22:39:34.646Z,26.85
2023-01-31T22:42:06.148Z,31.42
2023-01-31T22:44:37.581Z,25.02
2023-01-31T22:47:09.035Z,27.33
2023-01-31T22:49:40.464Z,24.70
2023-01-31T22:52:11.915Z,26.33
2023-01-31T22:54:43.365Z,26.25
2023-01-31T22:57:14.822Z,27.07
2023-01-31T22:59:46.260Z,28.88
2023-01-31T23:02:17.702Z,30.57
2023-01-31T23:04:49.176Z,27.42
2023-01-31T23:07:20.590Z,25.05
2023-01-31T23:09:51.984Z,30.38
2023-01-31T23:12:23.506Z,22.90
2023-01-31T23:14:54.958Z,28.83
2023-01-31T23:17:26.415Z,26.88
2023-01-31T23:19:57.853Z,26.45
2023-01-31T23:22:29.315Z,23.88
2023-01-31T23:25:00.745Z,25.73
2023-01-31T23:27:32.290Z,28.42
2023-01-31T23:30:06.337Z,30.80
2023-01-31T23:32:38.148Z,27.42
2023-01-31T23:35:10.319Z,25.60
2023-01-31T23:37:41.979Z,25.92
2023-01-31T23:40:13.754Z,27.42
2023-01-31T23:42:45.169Z,26.60
2023-01-31T23:45:16.735Z,26.88
2023-01-31T23:47:48.146Z,29.42
2023-01-31T23:50:19.846Z,29.60
2023-01-31T23:52:52.024Z,28.57
2023-01-31T23:55:23.430Z,29.00
2023-01-31T23:57:55.035Z,27.13
